Terminal Aerodrome Forecast
Issued by NWS

Current Version | Previous Version | Graphics & Text | Print | Product List | Glossary On
Versions: 1 2 3 4 5 6 7 8 9 10 11 12 13 14 15 16
990
FTUS41 KILN 230525
TAFLCK
TAF
KLCK 230525Z 2306/2406 VRB03KT P6SM OVC250
     FM231800 10006KT P6SM SCT200
     FM240300 13004KT P6SM BKN050=

USA.gov is the U.S. government's official web portal to all federal, state and local government web resources and services.